Time;durP1;ratioP1;P1;durP2;ratioP2;P2;SDS_P1;SDS_P2;PMS_P1;PMS_P2;Temp;Humidity;BMP_temperature;BMP_pressure;BME280_temperature;BME280_humidity;BME280_pressure;Samples;Min_cycle;Max_cycle;Signal;HPM_P1;HPM_P2
2023/03/25 00:01:36;;;;;;;13.85;7.85;;;;;;;10.22;92.03;99083.66;1769459;81;25428;-44
2023/03/25 00:04:04;;;;;;;10.35;7.95;;;;;;;10.18;91.95;99089.49;1769492;81;28093;-45
2023/03/25 00:06:33;;;;;;;13.72;8.35;;;;;;;10.14;92.13;99084.55;1769349;81;25421;-45
2023/03/25 00:09:03;;;;;;;12.18;8.00;;;;;;;10.12;92.17;99075.42;1769639;81;32753;-43
2023/03/25 00:11:31;;;;;;;;;;;;;;;10.10;92.26;99068.22;1772183;79;25606;-46
2023/03/25 00:13:59;;;;;;;11.48;6.72;;;;;;;10.09;92.18;99067.98;1769505;81;25444;-47
2023/03/25 00:16:28;;;;;;;10.70;7.05;;;;;;;10.06;91.98;99070.00;1769415;81;27376;-44
2023/03/25 00:18:58;;;;;;;13.22;7.47;;;;;;;10.03;92.22;99076.88;1769481;81;25536;-44
2023/03/25 00:21:23;;;;;;;10.08;7.22;;;;;;;10.00;92.27;99074.05;1768671;81;25602;-46
2023/03/25 00:23:52;;;;;;;10.35;6.78;;;;;;;9.96;92.23;99062.32;1769354;80;26309;-44
2023/03/25 00:26:21;;;;;;;11.53;6.42;;;;;;;9.92;92.12;99056.80;1769635;81;25470;-45
2023/03/25 00:28:49;;;;;;;9.50;5.80;;;;;;;9.87;92.19;99067.82;1769685;81;27306;-47
2023/03/25 00:31:16;;;;;;;12.07;6.42;;;;;;;9.83;92.19;99057.47;1769505;79;33390;-47
2023/03/25 00:33:44;;;;;;;9.53;6.00;;;;;;;9.80;92.22;99067.01;1769418;80;25438;-45
2023/03/25 00:36:13;;;;;;;10.58;6.78;;;;;;;9.77;92.43;99068.24;1769400;81;25658;-46
2023/03/25 00:38:42;;;;;;;9.65;6.92;;;;;;;9.72;92.73;99064.64;1769602;81;33442;-46
2023/03/25 00:41:25;;;;;;;11.12;7.12;;;;;;;9.73;92.70;99058.67;1769587;81;27561;-46
2023/03/25 00:43:55;;;;;;;11.05;6.95;;;;;;;9.69;92.72;99061.82;1768656;81;25674;-44
2023/03/25 00:46:26;;;;;;;12.90;7.03;;;;;;;9.68;92.90;99081.83;1769463;81;25452;-45
2023/03/25 00:48:55;;;;;;;14.25;6.83;;;;;;;9.67;92.90;99078.89;1759472;80;25592;-45
2023/03/25 00:51:25;;;;;;;10.40;6.80;;;;;;;9.65;92.92;99073.04;1755954;81;25179;-44
2023/03/25 00:53:55;;;;;;;;;;;;;;;9.64;92.98;99072.26;1758304;81;27408;-44
2023/03/25 00:56:25;;;;;;;13.68;6.62;;;;;;;9.63;93.05;99066.62;1755665;81;25674;-45
2023/03/25 00:58:54;;;;;;;11.43;5.97;;;;;;;9.62;93.15;99071.00;1755805;81;25536;-45
2023/03/25 01:01:27;;;;;;;12.30;7.95;;;;;;;9.62;93.25;99075.05;1755719;81;25636;-45
2023/03/25 01:03:56;;;;;;;12.25;7.33;;;;;;;9.61;93.36;99079.66;1755646;81;25456;-49
2023/03/25 01:06:28;;;;;;;11.73;7.03;;;;;;;9.60;93.30;99081.34;1754672;81;27426;-45
2023/03/25 01:08:59;;;;;;;13.28;7.15;;;;;;;9.58;93.35;99080.32;1753019;81;25605;-46
2023/03/25 01:11:33;;;;;;;12.60;7.45;;;;;;;9.57;93.49;99070.66;1755743;81;25403;-47
2023/03/25 01:14:04;;;;;;;12.10;6.80;;;;;;;9.58;93.56;99068.74;1755602;81;26078;-47
2023/03/25 01:16:34;;;;;;;13.95;6.97;;;;;;;9.56;93.55;99069.08;1755671;81;25592;-46
2023/03/25 01:19:00;;;;;;;10.63;7.22;;;;;;;9.54;93.47;99073.45;1755780;81;27539;-49
2023/03/25 01:21:29;;;;;;;10.93;7.35;;;;;;;9.54;93.25;99075.38;1755472;81;25725;-50
2023/03/25 01:23:57;;;;;;;14.15;7.87;;;;;;;9.52;93.22;99072.22;1755752;81;25377;-46
2023/03/25 01:26:26;;;;;;;11.40;6.80;;;;;;;9.50;93.32;99074.44;1755802;81;25760;-47
2023/03/25 01:28:55;;;;;;;16.60;7.28;;;;;;;9.49;93.34;99072.88;1755830;81;25458;-46
2023/03/25 01:31:22;;;;;;;12.03;7.17;;;;;;;9.47;93.30;99068.38;1755783;81;27332;-48
2023/03/25 01:33:51;;;;;;;11.48;6.72;;;;;;;9.45;93.30;99070.59;1755515;81;25433;-45
2023/03/25 01:36:20;;;;;;;12.77;7.23;;;;;;;9.40;93.25;99072.95;1755881;81;25588;-44
2023/03/25 01:38:50;;;;;;;11.48;7.55;;;;;;;9.38;93.08;99073.85;1755611;81;25586;-47
2023/03/25 01:41:19;;;;;;;12.57;7.33;;;;;;;9.35;92.98;99075.28;1755918;81;25208;-46
2023/03/25 01:44:15;;;;;;;12.78;7.58;;;;;;;9.30;93.01;99066.05;1755734;81;27375;-45
2023/03/25 01:46:51;;;;;;;9.55;6.65;;;;;;;9.27;93.03;99061.87;1752834;81;25183;-45
2023/03/25 01:49:39;;;;;;;11.43;7.53;;;;;;;9.22;92.83;99060.72;1765816;80;25386;-46
2023/03/25 01:52:17;;;;;;;9.83;6.85;;;;;;;9.18;92.83;99061.13;1769415;81;25617;-45
2023/03/25 01:54:46;;;;;;;13.38;6.60;;;;;;;9.11;92.88;99054.94;1769476;81;25401;-45
2023/03/25 01:57:18;;;;;;;12.98;7.65;;;;;;;9.06;92.73;99054.56;1769626;81;27388;-44
2023/03/25 01:59:46;;;;;;;12.25;6.83;;;;;;;9.01;92.77;99046.67;1769360;81;25721;-44
2023/03/25 02:02:17;;;;;;;10.38;6.40;;;;;;;8.98;93.04;99049.45;1769311;81;25580;-47
2023/03/25 02:05:02;;;;;;;11.78;7.30;;;;;;;8.94;92.91;99050.45;1769455;81;25681;-45
2023/03/25 02:07:33;;;;;;;12.78;7.53;;;;;;;8.88;92.80;99053.11;1769327;81;25564;-46
2023/03/25 02:10:09;;;;;;;12.18;6.95;;;;;;;8.84;93.05;99054.89;1769610;81;27497;-45
2023/03/25 02:12:39;;;;;;;13.10;7.80;;;;;;;8.79;92.97;99068.78;1769515;81;25518;-46
2023/03/25 02:15:11;;;;;;;11.65;7.20;;;;;;;8.75;92.96;99071.91;1769602;81;25584;-45
2023/03/25 02:18:16;;;;;;;14.40;7.75;;;;;;;8.71;93.08;99076.35;1769559;81;26214;-45
2023/03/25 02:21:17;;;;;;;11.83;7.25;;;;;;;8.68;92.98;99080.26;1768288;81;25624;-47
2023/03/25 02:24:21;;;;;;;12.63;7.28;;;;;;;8.62;92.85;99085.63;1769333;81;27556;-46
2023/03/25 02:27:16;;;;;;;12.88;7.95;;;;;;;8.58;93.31;99082.22;1767054;81;25694;-45
2023/03/25 02:29:54;;;;;;;12.20;7.22;;;;;;;8.54;93.47;99073.19;1769618;81;25357;-47
2023/03/25 02:32:41;;;;;;;12.98;8.20;;;;;;;8.50;93.30;99066.09;1768536;81;25880;-49
2023/03/25 02:35:27;;;;;;;15.13;9.20;;;;;;;8.45;93.11;99069.75;1768504;81;25634;-50
2023/03/25 02:38:23;;;;;;;16.05;8.63;;;;;;;8.41;93.54;99059.34;1766536;81;29651;-49
2023/03/25 02:40:57;;;;;;;13.13;8.33;;;;;;;8.38;93.38;99061.37;1615632;87;25533;-47
2023/03/25 02:43:53;;;;;;;14.18;8.70;;;;;;;8.33;93.44;99052.90;1616016;88;25614;-45
2023/03/25 02:46:23;;;;;;;12.53;8.13;;;;;;;8.29;93.24;99057.91;1615960;88;25598;-46
2023/03/25 02:49:06;;;;;;;15.65;8.18;;;;;;;8.25;93.50;99056.98;1615930;88;25676;-46
2023/03/25 02:51:42;;;;;;;15.40;9.00;;;;;;;8.22;93.78;99061.09;1615995;88;27418;-45
2023/03/25 02:54:14;;;;;;;18.27;10.08;;;;;;;8.17;93.52;99067.47;1615871;88;25757;-45
2023/03/25 02:56:46;;;;;;;14.70;9.20;;;;;;;8.15;94.06;99075.06;1616017;88;25634;-46
2023/03/25 02:59:17;;;;;;;15.58;9.28;;;;;;;8.12;94.00;99071.69;1615432;88;25689;-44
2023/03/25 03:01:49;;;;;;;17.55;8.88;;;;;;;8.09;94.22;99074.20;1615940;88;25616;-46
2023/03/25 03:04:17;;;;;;;16.45;8.93;;;;;;;8.06;94.18;99070.27;1615862;88;27394;-46
2023/03/25 03:06:46;;;;;;;17.35;9.30;;;;;;;8.04;94.24;99065.20;1615884;88;26283;-45
2023/03/25 03:09:32;;;;;;;14.87;9.43;;;;;;;8.02;94.29;99069.34;1615951;88;25562;-45
2023/03/25 03:12:19;;;;;;;15.43;9.20;;;;;;;7.97;94.41;99064.91;1615881;88;25807;-47
2023/03/25 03:15:18;;;;;;;16.15;8.93;;;;;;;7.95;94.71;99059.59;1615075;88;25684;-47
2023/03/25 03:18:13;;;;;;;16.97;9.63;;;;;;;7.93;94.62;99064.52;1682322;81;29985;-48
2023/03/25 03:21:05;;;;;;;16.62;9.45;;;;;;;7.92;94.87;99072.38;1766349;81;25605;-46
2023/03/25 03:23:58;;;;;;;19.92;10.60;;;;;;;7.88;94.93;99074.89;1766502;81;25574;-47
2023/03/25 03:26:54;;;;;;;17.50;9.38;;;;;;;7.86;94.81;99076.56;1762720;81;26584;-49
2023/03/25 03:29:26;;;;;;;15.75;9.80;;;;;;;7.83;95.10;99079.91;1766506;81;25725;-49
2023/03/25 03:32:19;;;;;;;18.80;10.23;;;;;;;7.80;95.03;99085.16;1766457;81;29484;-45
2023/03/25 03:35:01;;;;;;;18.20;10.70;;;;;;;7.78;95.32;99090.85;1765018;81;26111;-46
2023/03/25 03:37:39;;;;;;;16.35;10.32;;;;;;;7.76;95.64;99083.62;1764889;81;25390;-49
2023/03/25 03:40:15;;;;;;;14.78;8.93;;;;;;;7.75;95.76;99094.73;1766459;81;25620;-47
2023/03/25 03:42:50;;;;;;;18.70;10.80;;;;;;;7.74;95.89;99093.93;1766575;81;25460;-45
2023/03/25 03:45:27;;;;;;;16.87;10.30;;;;;;;7.75;96.22;99087.45;1761722;81;27358;-45
2023/03/25 03:47:57;;;;;;;19.30;10.08;;;;;;;7.76;96.37;99093.05;1766416;81;27215;-45
2023/03/25 03:50:30;;;;;;;17.32;10.65;;;;;;;7.76;96.21;99082.84;1766420;81;25837;-45
2023/03/25 03:53:11;;;;;;;20.08;11.12;;;;;;;7.76;96.18;99081.50;1766455;81;25678;-47
2023/03/25 03:55:55;;;;;;;16.73;9.83;;;;;;;7.76;96.19;99078.24;1766575;81;25621;-45
2023/03/25 03:58:27;;;;;;;20.72;10.45;;;;;;;7.75;96.20;99072.64;1766551;81;27403;-46
2023/03/25 04:01:02;;;;;;;16.52;10.65;;;;;;;7.74;96.22;99075.09;1766364;81;25697;-48
2023/03/25 04:03:47;;;;;;;20.92;10.50;;;;;;;7.72;96.08;99070.58;1766588;81;25451;-46
2023/03/25 04:06:37;;;;;;;15.85;10.10;;;;;;;7.71;96.12;99073.03;1703908;84;29116;-46
2023/03/25 04:09:27;;;;;;;18.25;10.93;;;;;;;7.69;96.13;99079.29;1704748;84;25689;-45
2023/03/25 04:12:06;;;;;;;20.57;10.58;;;;;;;7.69;95.98;99090.62;1704732;84;27554;-46
2023/03/25 04:14:34;;;;;;;19.60;10.05;;;;;;;7.67;96.05;99081.52;1703726;84;25672;-45
2023/03/25 04:17:00;;;;;;;18.52;10.55;;;;;;;7.63;95.96;99085.97;1704615;84;25592;-45
2023/03/25 04:19:28;;;;;;;17.70;10.80;;;;;;;7.60;96.10;99092.77;1704630;84;25697;-44
2023/03/25 04:21:54;;;;;;;19.87;11.10;;;;;;;7.61;96.40;99097.58;1704631;84;25671;-46
2023/03/25 04:24:25;;;;;;;18.95;11.12;;;;;;;7.60;96.34;99104.09;1704613;84;28109;-46
2023/03/25 04:26:51;;;;;;;22.27;12.45;;;;;;;7.64;96.54;99115.25;1704644;84;26245;-45
2023/03/25 04:29:19;;;;;;;18.92;11.57;;;;;;;7.56;96.46;99105.81;1704604;84;25488;-45
2023/03/25 04:31:48;;;;;;;19.77;11.68;;;;;;;7.56;96.48;99109.31;1704593;84;34799;-46
2023/03/25 04:34:19;;;;;;;21.40;10.93;;;;;;;7.54;96.46;99112.08;1704793;84;31284;-47
2023/03/25 04:36:45;;;;;;;21.60;11.90;;;;;;;7.52;96.41;99111.05;1704529;84;28282;-45
2023/03/25 04:39:21;;;;;;;21.77;12.07;;;;;;;7.51;96.65;99110.02;1704493;84;25946;-45
2023/03/25 04:41:52;;;;;;;20.43;11.38;;;;;;;7.48;96.50;99118.96;1704692;83;25446;-45
2023/03/25 04:44:24;;;;;;;21.15;11.88;;;;;;;7.48;96.42;99120.87;1763898;81;25681;-44
2023/03/25 04:46:52;;;;;;;17.65;10.68;;;;;;;7.48;96.95;99121.66;1766948;81;25639;-44
2023/03/25 04:49:22;;;;;;;19.80;10.75;;;;;;;7.47;96.81;99116.05;1763725;81;27911;-44
2023/03/25 04:51:51;;;;;;;20.20;11.75;;;;;;;7.47;96.85;99112.02;1759392;81;25539;-45
2023/03/25 04:54:20;;;;;;;17.35;10.95;;;;;;;7.48;96.99;99110.89;1759561;81;33340;-45
2023/03/25 04:56:48;;;;;;;19.80;11.63;;;;;;;7.50;96.87;99113.27;1759687;81;25437;-45
2023/03/25 04:59:18;;;;;;;20.37;10.85;;;;;;;7.50;96.87;99113.27;1759445;81;25459;-47
2023/03/25 05:01:47;;;;;;;18.95;11.73;;;;;;;7.51;96.73;99111.36;1759376;81;27311;-44
2023/03/25 05:04:16;;;;;;;13.73;7.63;;;;;;;7.52;96.84;99111.05;1759569;81;25598;-44
2023/03/25 05:06:48;;;;;;;19.92;11.38;;;;;;;7.54;97.03;99105.34;1759539;81;25568;-45
2023/03/25 05:09:24;;;;;;;22.77;11.83;;;;;;;7.55;97.07;99103.69;1759390;81;26114;-44
2023/03/25 05:11:51;;;;;;;17.70;11.08;;;;;;;7.58;97.16;99107.09;1758404;81;25523;-47
2023/03/25 05:14:21;;;;;;;20.80;11.73;;;;;;;7.61;97.25;99113.20;1759544;81;28188;-45
2023/03/25 05:16:49;;;;;;;20.57;11.48;;;;;;;7.64;97.35;99112.56;1759306;81;25703;-45
2023/03/25 05:19:17;;;;;;;19.57;11.28;;;;;;;7.66;97.30;99116.25;1759380;81;25558;-45
2023/03/25 05:21:44;;;;;;;17.65;10.80;;;;;;;7.67;97.15;99114.59;1759326;81;25674;-44
2023/03/25 05:24:13;;;;;;;17.92;10.70;;;;;;;7.69;97.08;99118.32;1759393;81;25530;-45
2023/03/25 05:26:42;;;;;;;23.02;11.63;;;;;;;7.71;96.95;99124.73;1759538;81;27484;-46
2023/03/25 05:29:14;;;;;;;19.60;11.78;;;;;;;7.69;96.92;99124.27;1759463;81;25693;-46
2023/03/25 05:31:47;;;;;;;19.70;11.10;;;;;;;7.70;96.95;99129.89;1759404;81;25432;-46
2023/03/25 05:34:15;;;;;;;19.75;11.22;;;;;;;7.70;97.27;99123.95;1759379;81;25720;-47
2023/03/25 05:36:44;;;;;;;17.40;10.88;;;;;;;7.73;97.48;99131.93;1759383;81;25413;-47
2023/03/25 05:39:11;;;;;;;21.03;12.13;;;;;;;7.76;97.64;99131.30;1759808;81;27312;-47
2023/03/25 05:41:39;;;;;;;20.85;12.73;;;;;;;7.79;97.71;99133.36;1759468;81;25553;-46
2023/03/25 05:44:13;;;;;;;21.85;13.62;;;;;;;7.82;97.92;99136.77;1759536;81;25611;-47
2023/03/25 05:46:38;;;;;;;23.10;12.70;;;;;;;7.83;97.91;99136.98;1759045;81;25912;-47
2023/03/25 05:49:04;;;;;;;21.57;13.05;;;;;;;7.87;98.07;99144.68;1760534;81;25549;-47
2023/03/25 05:51:36;;;;;;;21.20;12.60;;;;;;;7.90;98.03;99137.31;1766614;81;27544;-46
2023/03/25 05:54:09;;;;;;;22.82;12.65;;;;;;;7.92;98.10;99140.48;1766434;81;25724;-46
2023/03/25 05:56:35;;;;;;;20.72;12.40;;;;;;;7.96;98.28;99138.72;1765975;81;25454;-47
2023/03/25 05:59:02;;;;;;;18.55;11.88;;;;;;;8.01;98.24;99139.89;1766708;81;32896;-47
2023/03/25 06:01:36;;;;;;;23.22;12.80;;;;;;;8.05;98.42;99136.00;1766821;81;25614;-45
2023/03/25 06:04:08;;;;;;;25.12;13.45;;;;;;;8.10;98.45;99139.87;1766597;81;27889;-49
2023/03/25 06:06:35;;;;;;;23.65;13.58;;;;;;;8.13;98.36;99141.94;1766045;81;25628;-46
2023/03/25 06:09:03;;;;;;;22.52;13.58;;;;;;;8.17;98.36;99144.23;1766479;81;25777;-46
2023/03/25 06:11:36;;;;;;;21.45;13.10;;;;;;;8.22;98.67;99144.60;1740701;81;25618;-46
2023/03/25 06:14:00;;;;;;;26.50;13.58;;;;;;;8.26;98.45;99146.09;1765744;81;25797;-48
2023/03/25 06:16:29;;;;;;;22.45;13.00;;;;;;;8.33;98.89;99141.81;1766559;81;27435;-46
2023/03/25 06:19:01;;;;;;;22.30;12.98;;;;;;;8.38;98.75;99138.94;1766585;81;25420;-46
2023/03/25 06:21:31;;;;;;;23.57;13.95;;;;;;;8.45;98.77;99145.77;1766558;81;25587;-46
2023/03/25 06:24:00;;;;;;;26.05;13.35;;;;;;;8.50;98.78;99145.59;1766547;81;26212;-47
2023/03/25 06:26:29;;;;;;;23.35;13.20;;;;;;;8.55;98.57;99139.47;1766752;81;25232;-46
2023/03/25 06:28:57;;;;;;;20.05;12.58;;;;;;;8.58;98.54;99142.87;1766689;81;27501;-46
2023/03/25 06:31:26;;;;;;;26.40;13.83;;;;;;;8.64;98.46;99144.03;1766671;81;25454;-46
2023/03/25 06:33:55;;;;;;;21.55;13.25;;;;;;;8.68;98.45;99140.34;1766545;81;25411;-45
2023/03/25 06:36:24;;;;;;;23.83;12.93;;;;;;;8.74;98.33;99135.02;1766617;81;26148;-45
2023/03/25 06:38:52;;;;;;;36.63;17.30;;;;;;;8.78;98.26;99131.92;1766652;81;25426;-45
2023/03/25 06:41:23;;;;;;;22.93;14.00;;;;;;;8.85;98.53;99134.65;1766584;81;27910;-45
2023/03/25 06:43:52;;;;;;;25.48;14.07;;;;;;;8.96;99.06;99129.12;1766490;81;25630;-45
2023/03/25 06:46:18;;;;;;;24.47;13.93;;;;;;;9.03;98.33;99134.79;1766759;81;25488;-45
2023/03/25 06:48:44;;;;;;;23.20;14.10;;;;;;;9.12;98.80;99141.48;1766457;81;25579;-46
2023/03/25 06:51:12;;;;;;;25.40;15.70;;;;;;;9.25;98.86;99143.14;1760186;81;25903;-46
2023/03/25 06:53:39;;;;;;;27.67;16.45;;;;;;;9.37;98.82;99145.70;1759531;81;27112;-45
2023/03/25 06:56:08;;;;;;;25.30;15.05;;;;;;;9.46;98.06;99146.41;1759554;81;25586;-46
2023/03/25 06:58:35;;;;;;;26.45;15.40;;;;;;;9.50;97.37;99143.27;1759509;81;25204;-46
2023/03/25 07:01:05;;;;;;;21.97;13.93;;;;;;;9.53;96.94;99141.27;1759452;81;26417;-44
2023/03/25 07:03:37;;;;;;;24.80;14.95;;;;;;;9.57;96.68;99146.79;1759494;81;25445;-45
2023/03/25 07:06:06;;;;;;;24.05;15.10;;;;;;;9.63;96.53;99154.94;1759524;81;27332;-49
2023/03/25 07:08:33;;;;;;;25.02;15.53;;;;;;;9.65;96.02;99141.89;1759523;81;25208;-46
2023/03/25 07:11:06;;;;;;;26.05;15.90;;;;;;;9.73;96.27;99145.86;1759551;81;25624;-47
2023/03/25 07:13:34;;;;;;;23.70;15.75;;;;;;;9.79;95.88;99148.36;1759461;81;25686;-46
2023/03/25 07:16:01;;;;;;;26.75;16.95;;;;;;;9.87;96.06;99149.63;1759495;81;25566;-46
2023/03/25 07:18:29;;;;;;;27.22;16.23;;;;;;;9.99;95.96;99145.40;1759449;81;25873;-48
2023/03/25 07:20:56;;;;;;;27.05;17.00;;;;;;;10.02;95.22;99142.04;1759405;81;25615;-46
2023/03/25 07:23:23;;;;;;;23.05;16.20;;;;;;;10.14;96.19;99143.42;1759513;81;25596;-48
2023/03/25 07:25:50;;;;;;;30.00;16.00;;;;;;;10.27;95.48;99145.03;1759455;81;25627;-46
2023/03/25 07:28:18;;;;;;;25.55;16.40;;;;;;;10.37;95.16;99139.80;1759541;81;25674;-49
2023/03/25 07:30:44;;;;;;;24.52;15.95;;;;;;;10.46;94.62;99139.13;1759442;81;27400;-47
2023/03/25 07:33:11;;;;;;;26.90;15.45;;;;;;;10.51;93.72;99141.39;1759329;81;25355;-47
2023/03/25 07:35:37;;;;;;;27.27;15.83;;;;;;;10.51;92.97;99145.45;1759434;81;25483;-51
2023/03/25 07:38:03;;;;;;;19.52;13.70;;;;;;;10.48;91.69;99138.02;1759409;81;25601;-45
2023/03/25 07:40:32;;;;;;;28.92;15.83;;;;;;;10.45;91.84;99132.70;1759538;81;25566;-48
2023/03/25 07:42:58;;;;;;;21.40;14.25;;;;;;;10.54;93.27;99133.41;1759565;81;27509;-48
2023/03/25 07:45:25;;;;;;;26.82;14.55;;;;;;;10.72;94.35;99135.88;1759331;81;25366;-51
2023/03/25 07:47:56;;;;;;;19.30;13.58;;;;;;;10.87;93.79;99139.26;1759426;81;25466;-47
2023/03/25 07:50:26;;;;;;;22.48;13.38;;;;;;;10.95;92.62;99139.72;1759348;81;25616;-46
2023/03/25 07:52:57;;;;;;;;;;;;;;;11.07;91.77;99134.86;1740577;81;25651;-52
2023/03/25 07:55:27;;;;;;;23.65;13.98;;;;;;;11.13;92.02;99130.77;1759532;81;27312;-46
2023/03/25 07:57:53;;;;;;;21.75;14.50;;;;;;;11.20;91.36;99129.66;1759513;81;35216;-48
2023/03/25 08:00:22;;;;;;;20.43;14.38;;;;;;;11.21;90.52;99126.38;1759460;81;25632;-48
2023/03/25 08:02:50;;;;;;;19.50;13.88;;;;;;;11.35;91.08;99128.14;1759453;81;25680;-47
2023/03/25 08:05:21;;;;;;;25.68;15.03;;;;;;;11.50;90.49;99131.27;1759410;81;25648;-47
2023/03/25 08:07:51;;;;;;;25.80;14.25;;;;;;;11.88;93.14;99124.58;1759423;81;29634;-46
2023/03/25 08:10:20;;;;;;;18.75;12.73;;;;;;;12.58;92.95;99136.30;1759423;81;25172;-47
2023/03/25 08:12:50;;;;;;;21.65;13.55;;;;;;;13.12;89.41;99125.31;1759622;81;25603;-46
2023/03/25 08:15:19;;;;;;;20.35;11.63;;;;;;;13.22;86.15;99125.34;1759486;81;26130;-47
2023/03/25 08:17:46;;;;;;;;;;;;;;;13.22;84.83;99128.05;1762065;81;25533;-47
2023/03/25 08:20:14;;;;;;;23.12;12.80;;;;;;;13.19;84.21;99121.39;1759522;81;27352;-46
2023/03/25 08:22:46;;;;;;;17.50;11.85;;;;;;;13.21;82.50;99135.97;1759398;81;25798;-48
2023/03/25 08:25:16;;;;;;;18.42;11.85;;;;;;;13.40;82.87;99136.59;1759522;81;25332;-48
2023/03/25 08:27:42;;;;;;;;;;;;;;;13.64;82.54;99133.63;1762038;81;25628;-46
2023/03/25 08:30:12;;;;;;;17.60;10.35;;;;;;;13.80;84.45;99132.17;1759426;81;25569;-47
2023/03/25 08:32:39;;;;;;;18.02;11.12;;;;;;;14.19;82.72;99138.14;1759414;81;27413;-45
2023/03/25 08:35:09;;;;;;;17.95;10.15;;;;;;;14.46;82.60;99140.36;1759405;81;25602;-46
2023/03/25 08:37:38;;;;;;;21.60;12.05;;;;;;;14.84;81.41;99144.11;1759348;81;25522;-47
2023/03/25 08:40:08;;;;;;;18.30;13.00;;;;;;;15.07;77.92;99135.91;1759599;81;26262;-48
2023/03/25 08:42:37;;;;;;;22.40;13.22;;;;;;;15.35;76.97;99139.39;1759447;81;25468;-48
2023/03/25 08:45:07;;;;;;;23.38;14.07;;;;;;;15.73;77.19;99134.80;1759505;81;27411;-48
2023/03/25 08:47:33;;;;;;;23.15;14.28;;;;;;;16.29;77.59;99137.17;1759334;81;25453;-47
2023/03/25 08:50:02;;;;;;;23.02;12.15;;;;;;;16.76;77.64;99140.50;1759921;81;25545;-47
2023/03/25 08:52:32;;;;;;;22.62;12.15;;;;;;;17.07;71.14;99142.49;1766707;81;25833;-48
2023/03/25 08:55:04;;;;;;;20.25;12.65;;;;;;;17.07;71.49;99148.55;1766565;81;25579;-48
2023/03/25 08:57:31;;;;;;;19.10;11.60;;;;;;;16.90;70.50;99142.58;1766491;81;27309;-48
2023/03/25 08:59:59;;;;;;;13.95;10.10;;;;;;;16.87;68.64;99148.02;1766340;81;25570;-53
2023/03/25 09:02:29;;;;;;;13.68;9.80;;;;;;;17.13;69.55;99138.25;1766447;81;25559;-48
2023/03/25 09:05:04;;;;;;;12.90;8.80;;;;;;;17.27;68.17;99137.55;1766333;81;26520;-49
2023/03/25 09:07:40;;;;;;;13.60;8.98;;;;;;;17.49;70.41;99136.30;1766538;81;25616;-47
2023/03/25 09:10:13;;;;;;;16.55;9.25;;;;;;;18.16;70.78;99134.96;1766494;81;27312;-49
2023/03/25 09:12:44;;;;;;;12.07;8.43;;;;;;;18.51;65.76;99136.19;1766428;81;25457;-48
2023/03/25 09:15:13;;;;;;;11.18;8.90;;;;;;;18.25;65.39;99135.95;1766758;81;25433;-47
2023/03/25 09:17:41;;;;;;;13.10;7.55;;;;;;;18.05;64.38;99128.11;1766504;81;25681;-49
2023/03/25 09:20:10;;;;;;;11.50;8.43;;;;;;;17.81;62.63;99140.52;1766591;81;25588;-49
2023/03/25 09:22:39;;;;;;;12.25;8.38;;;;;;;17.58;62.96;99131.25;1766700;81;27519;-48
2023/03/25 09:25:09;;;;;;;9.28;7.45;;;;;;;18.01;66.07;99121.05;1766748;81;25544;-47
2023/03/25 09:27:37;;;;;;;10.55;7.12;;;;;;;18.31;62.38;99124.05;1766636;81;25494;-47
2023/03/25 09:30:08;;;;;;;10.80;6.70;;;;;;;18.17;60.76;99116.61;1766596;79;25671;-46
2023/03/25 09:32:34;;;;;;;10.25;6.47;;;;;;;18.03;60.75;99118.70;1766670;81;25465;-47
2023/03/25 09:35:00;;;;;;;9.63;6.33;;;;;;;18.24;61.05;99122.09;1766239;81;28043;-47
2023/03/25 09:37:29;;;;;;;12.18;6.70;;;;;;;18.37;61.16;99119.73;1766586;80;25685;-46
2023/03/25 09:39:59;;;;;;;10.45;6.28;;;;;;;18.67;60.64;99107.03;1766732;81;25552;-47
2023/03/25 09:42:52;;;;;;;8.03;5.97;;;;;;;19.00;60.35;99105.05;1766544;81;26324;-48
2023/03/25 09:45:44;;;;;;;8.40;5.70;;;;;;;19.29;60.13;99107.16;1763477;81;25413;-47
2023/03/25 09:48:37;;;;;;;10.23;6.08;;;;;;;19.34;58.48;99107.31;1766651;81;27515;-47
2023/03/25 09:51:21;;;;;;;10.18;5.25;;;;;;;19.07;58.00;99105.62;1766379;81;25645;-47
2023/03/25 09:54:11;;;;;;;8.00;5.20;;;;;;;18.79;57.77;99102.52;1765863;81;25559;-46
2023/03/25 09:56:42;;;;;;;8.45;4.70;;;;;;;18.75;58.05;99105.86;1675941;85;25908;-52
2023/03/25 09:59:16;;;;;;;7.72;4.83;;;;;;;18.96;58.11;99096.84;1675942;85;25689;-47
2023/03/25 10:02:21;;;;;;;7.17;4.42;;;;;;;19.19;56.18;99101.89;1675882;85;27332;-47
2023/03/25 10:05:01;;;;;;;9.20;4.47;;;;;;;19.27;54.58;99105.97;1675927;85;25262;-50
2023/03/25 10:08:00;;;;;;;7.58;4.28;;;;;;;19.27;55.24;99088.16;1675939;85;25424;-50
2023/03/25 10:10:52;;;;;;;6.95;4.55;;;;;;;19.26;53.02;99094.80;1631810;87;25656;-49
2023/03/25 10:13:46;;;;;;;6.12;4.08;;;;;;;18.95;55.74;99092.55;1601305;89;25740;-51
2023/03/25 10:16:27;;;;;;;9.45;5.10;;;;;;;18.87;54.23;99098.45;1636729;87;29561;-49
2023/03/25 10:19:07;;;;;;;8.88;5.20;;;;;;;18.82;54.30;99087.27;1621269;88;25791;-52
2023/03/25 10:21:39;;;;;;;8.95;6.53;;;;;;;18.89;52.62;99089.23;1609257;89;25903;-50
2023/03/25 10:24:24;;;;;;;8.63;4.55;;;;;;;18.76;52.95;99085.52;1636625;87;25678;-49
2023/03/25 10:27:05;;;;;;;8.78;5.65;;;;;;;18.97;52.91;99092.94;1622435;88;25537;-48
2023/03/25 10:29:42;;;;;;;9.05;5.97;;;;;;;18.89;51.67;99090.02;1621281;88;28059;-49
2023/03/25 10:32:16;;;;;;;11.05;5.40;;;;;;;18.79;52.89;99083.94;1651269;84;25504;-48
2023/03/25 10:34:50;;;;;;;7.85;5.37;;;;;;;18.67;53.44;99082.38;1700702;84;25705;-48
2023/03/25 10:37:27;;;;;;;11.25;5.97;;;;;;;18.42;52.59;99076.35;1700735;84;25706;-52
2023/03/25 10:40:07;;;;;;;5.85;4.40;;;;;;;18.32;55.42;99074.39;1700410;83;25675;-59
2023/03/25 10:42:39;;;;;;;6.62;3.90;;;;;;;18.15;53.31;99070.48;1696484;84;27333;-56
2023/03/25 10:45:15;;;;;;;7.83;4.75;;;;;;;17.85;53.72;99069.42;1700732;84;25525;-65
2023/03/25 10:47:45;;;;;;;7.58;4.20;;;;;;;17.81;55.20;99070.78;1719183;81;25449;-60
2023/03/25 10:50:17;;;;;;;7.17;4.30;;;;;;;18.00;56.35;99073.00;1763587;81;25703;-71
2023/03/25 10:52:47;;;;;;;7.65;4.35;;;;;;;17.98;54.95;99073.38;1763629;81;25199;-65
2023/03/25 10:55:28;;;;;;;9.30;4.35;;;;;;;17.62;54.23;99088.31;1763659;81;27693;-64
2023/03/25 10:57:56;;;;;;;8.85;4.58;;;;;;;17.40;55.29;99072.42;1763527;81;25421;-63
2023/03/25 11:00:26;;;;;;;8.55;4.85;;;;;;;17.33;56.57;99070.44;1763575;81;25590;-62
2023/03/25 11:02:53;;;;;;;10.35;4.95;;;;;;;17.60;57.70;99059.19;1763185;81;25635;-64
2023/03/25 11:05:23;;;;;;;11.60;4.67;;;;;;;18.22;60.86;99051.91;1763688;81;25567;-65
2023/03/25 11:07:55;;;;;;;8.18;4.75;;;;;;;18.75;57.86;99047.56;1763635;81;27374;-66
2023/03/25 11:10:45;;;;;;;10.18;5.05;;;;;;;18.89;56.12;99053.03;1763554;81;25785;-65
2023/03/25 11:13:15;;;;;;;8.98;5.30;;;;;;;19.01;57.15;99047.72;1690558;84;25615;-64
2023/03/25 11:15:42;;;;;;;7.70;4.83;;;;;;;19.22;55.74;99047.65;1667717;84;25637;-64
2023/03/25 11:18:27;;;;;;;10.60;4.72;;;;;;;19.17;55.18;99043.95;1642172;87;25621;-64
2023/03/25 11:21:04;;;;;;;9.88;5.00;;;;;;;19.08;54.80;99053.16;1668976;86;27348;-62
2023/03/25 11:23:35;;;;;;;9.20;5.70;;;;;;;19.03;54.91;99042.05;1618615;87;25478;-60
2023/03/25 11:26:15;;;;;;;9.80;4.80;;;;;;;18.88;53.79;99040.49;1669362;86;25742;-62
2023/03/25 11:28:45;;;;;;;8.08;5.05;;;;;;;18.55;52.92;99034.28;1640285;87;25817;-61
2023/03/25 11:31:19;;;;;;;7.30;5.15;;;;;;;18.04;53.45;99030.00;1669325;86;25628;-60
2023/03/25 11:34:14;;;;;;;11.10;5.58;;;;;;;17.78;53.86;99029.75;1640664;87;27359;-59
2023/03/25 11:37:04;;;;;;;8.88;4.62;;;;;;;17.63;55.06;99022.88;1670379;85;25466;-61
2023/03/25 11:39:38;;;;;;;8.80;5.05;;;;;;;17.36;55.15;99029.24;1699472;84;25301;-63
2023/03/25 11:42:27;;;;;;;6.17;4.53;;;;;;;16.99;54.44;99019.33;1676175;84;25755;-60
2023/03/25 11:44:58;;;;;;;10.20;4.78;;;;;;;16.62;54.63;99016.97;1699626;84;25417;-60
2023/03/25 11:47:36;;;;;;;6.80;4.03;;;;;;;16.54;56.70;99009.12;1699588;84;27320;-61
2023/03/25 11:50:06;;;;;;;8.30;4.90;;;;;;;16.55;56.10;99009.30;1699547;84;25307;-62
2023/03/25 11:52:45;;;;;;;7.58;5.00;;;;;;;16.74;57.47;99002.81;1699680;84;25177;-60
2023/03/25 11:55:24;;;;;;;7.17;3.45;;;;;;;16.83;58.13;99006.55;1699763;84;34866;-59
2023/03/25 11:57:55;;;;;;;6.45;3.85;;;;;;;17.01;57.22;99001.19;1699696;84;25594;-61